Time;durP1;ratioP1;P1;durP2;ratioP2;P2;SDS_P1;SDS_P2;PMS_P1;PMS_P2;Temp;Humidity;BMP_temperature;BMP_pressure;BME280_temperature;BME280_humidity;BME280_pressure;Samples;Min_cycle;Max_cycle;Signal;HPM_P1;HPM_P2
2022/10/08 00:00:51;;;;;;;4.33;2.80;;;19.20;63.30;20.30;100950.00;;;;4972546;28;20237;-46
2022/10/08 00:03:18;;;;;;;3.97;2.97;;;19.20;63.30;20.30;100948.00;;;;4973080;28;20547;-46
2022/10/08 00:06:00;;;;;;;3.20;2.90;;;19.20;63.30;20.30;100952.00;;;;4972466;28;20250;-46
2022/10/08 00:08:26;;;;;;;4.20;2.90;;;19.20;63.30;20.30;100951.00;;;;4970997;28;20166;-47
2022/10/08 00:10:55;;;;;;;3.03;2.60;;;19.20;63.30;20.20;100939.00;;;;4972179;28;20305;-46
2022/10/08 00:13:21;;;;;;;3.90;3.00;;;19.20;63.20;20.20;100939.00;;;;4972482;28;20174;-47
2022/10/08 00:15:47;;;;;;;3.07;2.70;;;19.20;63.10;20.20;100928.00;;;;4971506;28;20213;-47
2022/10/08 00:18:13;;;;;;;4.07;2.90;;;19.20;63.10;20.20;100931.00;;;;4972549;28;20707;-47
2022/10/08 00:20:38;;;;;;;3.33;2.90;;;19.20;63.10;20.20;100938.00;;;;4972567;28;20681;-47
2022/10/08 00:23:04;;;;;;;3.93;2.97;;;19.10;63.10;20.20;100942.00;;;;4971239;28;20183;-47
2022/10/08 00:25:30;;;;;;;3.83;3.20;;;19.10;63.10;20.20;100933.00;;;;4971296;28;20201;-46
2022/10/08 00:27:55;;;;;;;4.10;2.70;;;19.10;63.10;20.10;100943.00;;;;4972199;28;20637;-48
2022/10/08 00:30:21;;;;;;;4.67;2.77;;;19.20;63.10;20.20;100936.00;;;;4972157;28;20244;-47
2022/10/08 00:32:47;;;;;;;3.90;3.03;;;19.10;63.20;20.20;100931.00;;;;4972030;28;20169;-45
2022/10/08 00:35:12;;;;;;;3.77;3.10;;;19.10;63.20;20.10;100938.00;;;;4970548;28;20240;-46
2022/10/08 00:37:38;;;;;;;3.53;2.87;;;19.10;63.20;20.10;100932.00;;;;4971980;28;20204;-46
2022/10/08 00:40:04;;;;;;;3.30;3.00;;;19.10;63.20;20.10;100925.00;;;;4971947;28;20181;-46
2022/10/08 00:42:30;;;;;;;3.00;2.60;;;19.00;63.10;20.10;100934.00;;;;4972479;28;20190;-46
2022/10/08 00:45:00;;;;;;;4.43;2.90;;;19.00;63.00;20.10;100929.00;;;;4971818;28;20915;-48
2022/10/08 00:47:31;;;;;;;2.77;2.30;;;19.00;63.10;20.00;100926.00;;;;4972050;28;20205;-47
2022/10/08 00:50:12;;;;;;;3.23;2.93;;;19.00;63.10;20.00;100923.00;;;;4972017;28;20212;-47
2022/10/08 00:52:53;;;;;;;3.70;2.73;;;19.00;63.00;20.00;100924.00;;;;4971156;28;20181;-48
2022/10/08 00:55:21;;;;;;;3.50;3.03;;;19.00;63.10;20.00;100917.00;;;;4954692;28;20194;-47
2022/10/08 00:57:46;;;;;;;3.40;2.90;;;19.00;63.00;20.00;100915.00;;;;4970523;28;20255;-47
2022/10/08 01:00:21;;;;;;;3.70;2.83;;;18.90;62.90;20.00;100920.00;;;;4970384;28;20182;-47
2022/10/08 01:02:47;;;;;;;4.00;3.10;;;19.00;63.10;19.90;100924.00;;;;4971722;28;20186;-47
2022/10/08 01:05:15;;;;;;;3.80;3.03;;;18.90;62.90;19.90;100931.00;;;;4971478;28;20177;-45
2022/10/08 01:07:58;;;;;;;3.33;2.60;;;18.90;62.90;19.90;100919.00;;;;4969858;28;20200;-47
2022/10/08 01:10:39;;;;;;;3.97;2.90;;;18.90;62.90;19.90;100924.00;;;;4955614;28;20192;-47
2022/10/08 01:13:17;;;;;;;3.20;2.80;;;18.90;63.00;19.90;100919.00;;;;4955662;28;20168;-47
2022/10/08 01:16:01;;;;;;;3.53;2.90;;;18.90;63.10;19.90;100930.00;;;;4971477;28;20817;-47
2022/10/08 01:18:51;;;;;;;5.40;2.57;;;18.80;62.90;19.90;100919.00;;;;4970501;28;20169;-45
2022/10/08 01:21:38;;;;;;;2.57;2.27;;;18.80;62.90;19.80;100911.00;;;;4954806;28;20170;-46
2022/10/08 01:24:12;;;;;;;7.40;2.90;;;18.80;62.90;19.80;100923.00;;;;4956722;28;20217;-46
2022/10/08 01:27:03;;;;;;;3.07;2.50;;;18.80;62.90;19.80;100922.00;;;;4970035;28;20287;-46
2022/10/08 01:29:41;;;;;;;3.30;2.87;;;18.80;63.00;19.80;100921.00;;;;4953684;28;20173;-46
2022/10/08 01:32:15;;;;;;;3.10;2.60;;;18.80;62.90;19.80;100922.00;;;;4953941;28;20256;-47
2022/10/08 01:34:59;;;;;;;3.07;2.53;;;18.80;63.00;19.80;100925.00;;;;4953966;28;20649;-45
2022/10/08 01:37:30;;;;;;;3.70;2.83;;;18.80;62.90;19.70;100924.00;;;;4955586;28;20204;-46
2022/10/08 01:39:58;;;;;;;3.87;2.50;;;18.80;63.00;19.70;100928.00;;;;4938085;28;20180;-46
2022/10/08 01:42:25;;;;;;;3.20;2.50;;;18.80;62.90;19.70;100931.00;;;;4953997;28;20177;-46
2022/10/08 01:44:54;;;;;;;4.17;2.60;;;18.80;62.90;19.70;100925.00;;;;4953716;28;20559;-48
2022/10/08 01:47:22;;;;;;;2.93;2.53;;;18.70;62.90;19.70;100915.00;;;;4954294;28;20571;-48
2022/10/08 01:49:53;;;;;;;3.43;2.73;;;18.70;62.90;19.70;100916.00;;;;4954143;28;20181;-47
2022/10/08 01:52:35;;;;;;;2.83;2.50;;;18.70;62.90;19.70;100920.00;;;;4953633;28;20173;-47
2022/10/08 01:55:03;;;;;;;4.10;2.50;;;18.70;63.00;19.70;100916.00;;;;4954290;28;20530;-48
2022/10/08 01:57:30;;;;;;;3.70;2.47;;;18.70;63.10;19.70;100930.00;;;;4953321;28;20848;-46
2022/10/08 02:00:11;;;;;;;3.77;2.57;;;18.70;63.10;19.60;100912.00;;;;4953295;28;20560;-45
2022/10/08 02:02:37;;;;;;;3.70;2.67;;;18.70;63.00;19.60;100910.00;;;;4953092;28;20653;-45
2022/10/08 02:05:03;;;;;;;3.90;2.40;;;18.70;63.00;19.70;100925.00;;;;4970089;28;20173;-47
2022/10/08 02:07:31;;;;;;;7.23;2.90;;;18.60;62.90;19.60;100914.00;;;;4967774;28;20205;-47
2022/10/08 02:10:13;;;;;;;3.73;2.50;;;18.60;63.00;19.60;100904.00;;;;4953507;28;20211;-48
2022/10/08 02:12:39;;;;;;;3.80;2.63;;;18.60;63.00;19.60;100830.00;;;;4970352;28;20248;-45
2022/10/08 02:15:19;;;;;;;3.60;2.27;;;18.60;63.00;19.50;100907.00;;;;4970171;28;20180;-48
2022/10/08 02:18:19;;;;;;;5.27;2.50;;;18.60;63.00;19.50;100915.00;;;;4940389;28;20193;-45
2022/10/08 02:21:07;;;;;;;4.67;2.70;;;18.60;62.90;19.50;100917.00;;;;4943376;28;20658;-45
2022/10/08 02:23:42;;;;;;;4.50;2.83;;;18.50;62.70;19.50;100912.00;;;;4953475;28;20183;-48
2022/10/08 02:26:12;;;;;;;5.17;2.77;;;18.50;62.60;19.50;100913.00;;;;4970200;28;20203;-46
2022/10/08 02:29:02;;;;;;;7.03;2.93;;;18.50;62.50;19.50;100910.00;;;;4953451;28;20165;-49
2022/10/08 02:31:46;;;;;;;6.03;2.80;;;18.50;62.40;19.40;100919.00;;;;4952716;28;20205;-47
2022/10/08 02:34:39;;;;;;;5.33;3.00;;;18.40;62.30;19.40;100911.00;;;;4954390;28;20168;-46
2022/10/08 02:37:18;;;;;;;5.50;2.53;;;18.40;62.30;19.40;100902.00;;;;4953897;28;20256;-49
2022/10/08 02:39:49;;;;;;;4.03;2.60;;;18.40;62.30;19.40;100896.00;;;;4968759;28;20728;-47
2022/10/08 02:42:18;;;;;;;2.97;2.30;;;18.40;62.30;19.30;100902.00;;;;4952652;28;20165;-46
2022/10/08 02:44:56;;;;;;;5.07;3.00;;;18.30;62.10;19.30;100896.00;;;;4953352;28;20711;-47
2022/10/08 02:47:24;;;;;;;4.17;2.50;;;18.30;61.90;19.30;100892.00;;;;4953439;28;20216;-47
2022/10/08 02:49:53;;;;;;;4.27;2.73;;;18.30;61.70;19.30;100904.00;;;;4952705;28;20196;-56
2022/10/08 02:52:19;;;;;;;7.57;2.90;;;18.30;61.60;19.20;100900.00;;;;4953142;28;20564;-48
2022/10/08 02:54:45;;;;;;;4.60;2.87;;;18.30;61.60;19.20;100893.00;;;;4952337;28;20169;-47
2022/10/08 02:57:17;;;;;;;3.87;2.70;;;18.30;61.40;19.20;100892.00;;;;4952153;28;20208;-48
2022/10/08 02:59:44;;;;;;;5.17;2.90;;;18.20;61.30;19.20;100897.00;;;;4953116;28;20531;-47
2022/10/08 03:02:11;;;;;;;4.70;2.70;;;18.20;61.20;19.20;100898.00;;;;4969773;28;20177;-47
2022/10/08 03:04:47;;;;;;;4.30;2.63;;;18.20;61.00;19.10;100893.00;;;;4952287;28;20183;-47
2022/10/08 03:07:14;;;;;;;6.53;2.70;;;18.20;61.20;19.10;100888.00;;;;4952865;28;20280;-47
2022/10/08 03:09:42;;;;;;;4.07;2.77;;;18.20;61.00;19.10;100893.00;;;;4952602;28;20312;-46
2022/10/08 03:12:08;;;;;;;3.60;2.50;;;18.10;60.50;19.10;100887.00;;;;4968556;28;20270;-46
2022/10/08 03:14:38;;;;;;;3.57;2.73;;;18.10;60.80;19.00;100889.00;;;;4968139;28;20305;-45
2022/10/08 03:17:09;;;;;;;5.53;2.90;;;18.10;60.70;19.00;100864.00;;;;4952476;28;20203;-46
2022/10/08 03:19:35;;;;;;;4.60;2.93;;;18.10;60.70;19.00;100888.00;;;;4936533;28;20180;-47
2022/10/08 03:22:01;;;;;;;5.93;2.80;;;18.10;60.40;19.00;100892.00;;;;4969343;28;20521;-47
2022/10/08 03:24:26;;;;;;;4.80;3.03;;;18.00;60.40;18.90;100887.00;;;;4967992;28;20225;-46
2022/10/08 03:26:53;;;;;;;4.13;2.77;;;18.00;60.40;18.90;100881.00;;;;4969170;28;20201;-46
2022/10/08 03:29:18;;;;;;;13.70;3.13;;;18.00;60.50;19.00;100876.00;;;;4967972;28;20266;-46
2022/10/08 03:31:47;;;;;;;5.37;2.83;;;18.00;61.40;19.00;100885.00;;;;4968939;28;20855;-46
2022/10/08 03:34:13;;;;;;;7.67;2.90;;;18.00;61.10;19.00;100887.00;;;;4969239;28;20278;-46
2022/10/08 03:36:38;;;;;;;6.63;2.80;;;18.00;61.00;19.00;100898.00;;;;4969242;28;20785;-47
2022/10/08 03:39:04;;;;;;;7.40;3.13;;;18.10;61.20;19.00;100885.00;;;;4969313;28;20183;-46
2022/10/08 03:41:30;;;;;;;4.70;2.73;;;18.00;61.20;19.00;100895.00;;;;4969510;28;20191;-45
2022/10/08 03:43:57;;;;;;;4.87;2.90;;;18.00;61.30;19.00;100891.00;;;;4969209;28;20181;-46
2022/10/08 03:46:23;;;;;;;9.67;2.93;;;18.10;61.40;19.00;100893.00;;;;4968066;28;20724;-46
2022/10/08 03:48:49;;;;;;;9.47;3.00;;;18.00;61.40;19.00;100894.00;;;;4969423;28;20175;-46
2022/10/08 03:51:15;;;;;;;11.83;3.07;;;18.10;61.50;19.00;100904.00;;;;4969298;28;20211;-47
2022/10/08 03:53:41;;;;;;;6.57;2.67;;;18.00;61.40;19.00;100900.00;;;;4969055;28;20267;-47
2022/10/08 03:56:11;;;;;;;7.03;2.70;;;18.00;61.50;19.00;100911.00;;;;4968885;28;20204;-47
2022/10/08 03:58:37;;;;;;;6.93;2.70;;;18.00;61.50;19.00;100919.00;;;;4969182;28;20167;-47
2022/10/08 04:01:05;;;;;;;7.83;2.93;;;18.00;61.50;19.00;100917.00;;;;4969036;28;20189;-46
2022/10/08 04:03:31;;;;;;;4.70;2.70;;;18.00;61.50;18.90;100929.00;;;;4967772;28;20212;-46
2022/10/08 04:05:57;;;;;;;3.80;2.50;;;18.00;61.60;18.80;100920.00;;;;4969198;28;20231;-46
2022/10/08 04:08:24;;;;;;;5.87;2.80;;;18.00;61.60;19.00;100934.00;;;;4968648;28;20185;-46
2022/10/08 04:10:49;;;;;;;5.13;2.67;;;18.00;61.60;19.00;100935.00;;;;4968884;28;20212;-46
2022/10/08 04:13:15;;;;;;;4.43;2.73;;;18.00;61.70;19.00;100941.00;;;;4951345;28;20217;-47
2022/10/08 04:15:42;;;;;;;6.00;2.70;;;17.90;61.70;18.90;100926.00;;;;4968478;28;20169;-46
2022/10/08 04:18:11;;;;;;;5.20;2.63;;;17.90;61.80;18.90;100954.00;;;;4964972;28;20630;-46
2022/10/08 04:20:40;;;;;;;5.67;2.60;;;17.90;61.70;18.90;100946.00;;;;4968150;28;20190;-47
2022/10/08 04:23:09;;;;;;;6.40;2.70;;;17.90;61.80;18.90;100947.00;;;;4967243;28;20235;-47
2022/10/08 04:25:35;;;;;;;5.20;2.57;;;17.90;61.80;18.90;100951.00;;;;4950913;28;20180;-47
2022/10/08 04:28:04;;;;;;;9.43;2.77;;;18.00;62.00;18.90;100950.00;;;;4968816;28;20184;-46
2022/10/08 04:30:30;;;;;;;5.17;2.70;;;17.90;61.90;18.90;100957.00;;;;4968651;28;20757;-48
2022/10/08 04:32:57;;;;;;;11.13;3.00;;;17.90;61.90;18.90;100947.00;;;;4972285;28;20176;-47
2022/10/08 04:35:23;;;;;;;16.90;3.97;;;17.90;62.10;18.90;100953.00;;;;4972569;28;20172;-46
2022/10/08 04:37:49;;;;;;;15.60;4.10;;;17.90;62.10;18.90;100955.00;;;;4972495;28;20352;-48
2022/10/08 04:40:14;;;;;;;21.70;4.60;;;17.90;62.20;18.90;100957.00;;;;4972692;28;20167;-47
2022/10/08 04:42:40;;;;;;;17.47;4.13;;;17.80;62.20;18.90;100963.00;;;;4972655;28;20536;-47
2022/10/08 04:45:06;;;;;;;16.00;4.20;;;17.90;62.30;18.90;100952.00;;;;4972615;28;20176;-46
2022/10/08 04:47:32;;;;;;;16.00;4.50;;;17.90;62.50;18.90;100960.00;;;;4971750;28;20203;-48
2022/10/08 04:49:58;;;;;;;13.23;4.23;;;17.90;62.50;18.90;100959.00;;;;4971786;28;20180;-47
2022/10/08 04:52:23;;;;;;;13.77;4.20;;;17.90;62.60;18.90;100966.00;;;;4971607;28;20181;-47
2022/10/08 04:54:49;;;;;;;14.50;4.20;;;17.90;62.60;18.90;100962.00;;;;4971767;28;20168;-47
2022/10/08 04:57:15;;;;;;;14.90;3.80;;;17.80;62.70;18.90;100967.00;;;;4970215;28;20712;-46
2022/10/08 04:59:41;;;;;;;20.23;4.10;;;17.90;62.80;18.90;100970.00;;;;4971887;28;20184;-47
2022/10/08 05:02:06;;;;;;;9.40;3.87;;;17.90;62.80;18.90;100981.00;;;;4970285;28;20175;-47
2022/10/08 05:04:32;;;;;;;11.87;3.63;;;17.80;62.60;18.90;100992.00;;;;4971528;28;20173;-46
2022/10/08 05:06:58;;;;;;;15.17;3.73;;;17.80;62.70;18.80;100974.00;;;;4970898;28;20195;-47
2022/10/08 05:09:23;;;;;;;10.60;3.40;;;17.90;62.90;18.80;100970.00;;;;4971440;28;20169;-47
2022/10/08 05:11:50;;;;;;;10.07;3.60;;;17.90;62.90;18.80;100980.00;;;;4971388;28;20611;-47
2022/10/08 05:14:15;;;;;;;9.77;3.60;;;17.80;62.70;18.90;100980.00;;;;4971615;28;20213;-47
2022/10/08 05:16:41;;;;;;;11.10;3.40;;;17.80;62.80;18.70;100972.00;;;;4971493;28;20217;-46
2022/10/08 05:19:07;;;;;;;7.43;3.40;;;17.80;62.80;18.80;100937.00;;;;4971593;28;20259;-46
2022/10/08 05:21:33;;;;;;;6.30;3.00;;;17.80;63.70;18.80;100971.00;;;;4970543;28;20644;-46
2022/10/08 05:24:06;;;;;;;9.90;3.33;;;17.80;62.90;18.80;100975.00;;;;4971522;28;20595;-47
2022/10/08 05:26:37;;;;;;;10.73;3.43;;;17.80;62.90;18.80;100983.00;;;;4972025;28;20199;-46
2022/10/08 05:29:03;;;;;;;5.53;3.47;;;17.80;63.00;18.80;100983.00;;;;4971964;28;20181;-47
2022/10/08 05:31:29;;;;;;;8.43;3.30;;;17.70;62.90;18.80;100988.00;;;;4971466;28;20548;-47
2022/10/08 05:33:55;;;;;;;8.70;3.00;;;17.80;63.00;18.80;100990.00;;;;4972016;28;20187;-47
2022/10/08 05:36:26;;;;;;;5.97;2.87;;;17.70;62.90;18.80;100980.00;;;;4970542;28;20196;-47
2022/10/08 05:38:52;;;;;;;6.33;2.83;;;17.70;63.00;18.80;100989.00;;;;4971850;28;20163;-46
2022/10/08 05:41:21;;;;;;;4.63;2.83;;;17.70;62.90;18.80;100979.00;;;;4970423;28;20227;-47
2022/10/08 05:43:47;;;;;;;6.77;3.10;;;17.70;62.90;18.80;100981.00;;;;4971250;28;20195;-47
2022/10/08 05:46:12;;;;;;;5.80;2.80;;;17.70;62.90;18.70;100962.00;;;;4971054;28;20203;-47
2022/10/08 05:48:38;;;;;;;5.63;2.80;;;17.70;62.90;18.80;100983.00;;;;4969979;28;20173;-48
2022/10/08 05:51:05;;;;;;;7.53;3.00;;;17.70;62.90;18.70;100997.00;;;;4971262;28;20287;-47
2022/10/08 05:53:35;;;;;;;5.53;2.90;;;17.70;63.00;18.70;101003.00;;;;4970866;28;20177;-47
2022/10/08 05:56:01;;;;;;;6.83;3.03;;;17.70;63.10;18.70;101003.00;;;;4970227;28;20198;-47
2022/10/08 05:58:27;;;;;;;6.03;2.83;;;17.70;63.10;18.70;100998.00;;;;4969659;28;20177;-46
2022/10/08 06:01:00;;;;;;;3.93;2.73;;;17.70;63.10;18.70;100999.00;;;;4970831;28;20178;-45
2022/10/08 06:03:26;;;;;;;5.10;2.70;;;17.70;63.10;18.70;100998.00;;;;4970479;28;20192;-45
2022/10/08 06:05:52;;;;;;;5.33;2.60;;;17.70;63.10;18.70;101007.00;;;;4970025;28;20223;-47
2022/10/08 06:08:17;;;;;;;5.80;2.73;;;17.70;63.10;18.70;101010.00;;;;4971141;28;20175;-46
2022/10/08 06:10:50;;;;;;;5.50;2.70;;;17.70;63.10;18.70;101018.00;;;;4970572;28;20200;-47
2022/10/08 06:13:17;;;;;;;4.57;2.57;;;17.70;63.20;18.70;101016.00;;;;4970113;28;20635;-47
2022/10/08 06:15:43;;;;;;;4.60;2.63;;;17.70;63.20;18.70;101024.00;;;;4969562;28;20170;-46
2022/10/08 06:18:09;;;;;;;5.37;2.77;;;17.70;63.30;18.70;101026.00;;;;4971219;28;20173;-46
2022/10/08 06:20:37;;;;;;;3.70;2.70;;;17.60;63.10;18.70;101033.00;;;;4971019;28;20237;-45
2022/10/08 06:23:03;;;;;;;3.57;2.50;;;17.60;63.20;18.70;101028.00;;;;4969921;28;20264;-46
2022/10/08 06:25:29;;;;;;;5.33;2.90;;;17.70;63.20;18.70;101043.00;;;;4970410;28;20197;-48
2022/10/08 06:27:55;;;;;;;4.57;2.70;;;17.70;63.20;18.60;101032.00;;;;4970639;28;20183;-46
2022/10/08 06:30:20;;;;;;;4.27;3.00;;;17.70;63.30;18.60;101046.00;;;;4970228;28;20262;-47
2022/10/08 06:32:46;;;;;;;3.30;2.43;;;17.60;63.20;18.60;101042.00;;;;4970415;28;20601;-45
2022/10/08 06:35:12;;;;;;;5.07;2.60;;;17.60;63.30;18.60;101059.00;;;;4970386;28;20165;-48
2022/10/08 06:37:38;;;;;;;4.33;2.50;;;17.60;63.30;18.60;101054.00;;;;4970743;28;20189;-47
2022/10/08 06:40:05;;;;;;;3.77;2.47;;;17.60;63.30;18.60;101060.00;;;;4970811;28;20741;-47
2022/10/08 06:42:30;;;;;;;3.13;2.40;;;17.60;63.40;18.60;101048.00;;;;4974031;28;20245;-47
2022/10/08 06:44:56;;;;;;;2.80;2.40;;;17.60;63.50;18.60;101061.00;;;;4975936;28;20171;-48
2022/10/08 06:47:22;;;;;;;3.30;2.40;;;17.60;63.40;18.60;101062.00;;;;4969714;28;20205;-48
2022/10/08 06:49:47;;;;;;;3.80;2.50;;;17.60;63.40;18.60;101075.00;;;;4970289;28;20180;-46
2022/10/08 06:52:13;;;;;;;3.60;2.43;;;17.60;63.50;18.60;101074.00;;;;4970250;28;20600;-47
2022/10/08 06:54:39;;;;;;;3.17;2.50;;;17.60;63.50;18.60;101080.00;;;;4969704;28;20594;-45
2022/10/08 06:57:04;;;;;;;4.03;2.60;;;17.60;63.50;18.60;101083.00;;;;4970060;28;20573;-44
2022/10/08 06:59:30;;;;;;;4.13;2.67;;;17.60;63.50;18.50;101087.00;;;;4970213;28;20184;-46
2022/10/08 07:01:56;;;;;;;5.10;2.67;;;17.50;63.50;18.60;101092.00;;;;4969738;28;20176;-45
2022/10/08 07:04:22;;;;;;;4.00;2.50;;;17.50;63.50;18.60;101095.00;;;;4969915;28;20183;-46
2022/10/08 07:06:47;;;;;;;4.03;2.47;;;17.50;63.40;18.50;101099.00;;;;4970267;28;20555;-45
2022/10/08 07:09:13;;;;;;;3.73;2.50;;;17.50;63.50;18.60;101115.00;;;;4970133;28;20172;-47
2022/10/08 07:11:39;;;;;;;3.50;2.40;;;17.50;63.50;18.30;101120.00;;;;4969599;28;20723;-47
2022/10/08 07:14:04;;;;;;;4.20;2.50;;;17.50;63.40;18.50;101119.00;;;;4969810;28;20162;-46
2022/10/08 07:16:30;;;;;;;4.30;2.50;;;17.50;63.50;18.50;101126.00;;;;4969952;28;20191;-46
2022/10/08 07:18:57;;;;;;;3.43;2.43;;;17.50;63.60;18.50;101133.00;;;;4969884;28;20178;-46
2022/10/08 07:21:23;;;;;;;3.27;2.40;;;17.50;63.60;18.50;101142.00;;;;4970126;28;20176;-46
2022/10/08 07:23:48;;;;;;;3.23;2.37;;;17.50;63.60;18.50;101137.00;;;;4969445;28;20629;-46
2022/10/08 07:26:25;;;;;;;3.07;2.20;;;17.50;64.40;18.50;101133.00;;;;4968841;28;20640;-46
2022/10/08 07:28:59;;;;;;;3.30;2.63;;;17.50;63.60;18.50;101140.00;;;;4970218;28;20184;-47
2022/10/08 07:31:30;;;;;;;2.97;2.23;;;17.50;63.60;18.50;101146.00;;;;4969663;28;20215;-47
2022/10/08 07:34:00;;;;;;;2.70;2.30;;;17.50;63.60;18.50;101151.00;;;;4969315;28;20210;-47
2022/10/08 07:36:27;;;;;;;3.20;2.50;;;17.50;63.70;18.50;101149.00;;;;4969926;28;20195;-45
2022/10/08 07:38:57;;;;;;;3.43;2.27;;;17.50;63.60;18.50;101158.00;;;;4969914;28;20184;-46
2022/10/08 07:41:23;;;;;;;2.73;2.30;;;17.50;63.70;18.50;101155.00;;;;4969849;28;20180;-46
2022/10/08 07:43:53;;;;;;;5.37;2.63;;;17.50;63.70;18.50;101162.00;;;;4968915;28;20191;-44
2022/10/08 07:46:19;;;;;;;3.30;2.47;;;17.50;63.90;18.50;101166.00;;;;4969803;28;20198;-48
2022/10/08 07:48:45;;;;;;;4.13;2.40;;;17.50;63.70;18.50;101172.00;;;;4969646;28;20169;-47
2022/10/08 07:51:12;;;;;;;5.10;2.63;;;17.50;63.70;18.60;101174.00;;;;4968174;28;20232;-47
2022/10/08 07:53:39;;;;;;;5.10;2.47;;;17.50;64.00;18.60;101180.00;;;;4968916;28;20178;-46
2022/10/08 07:56:05;;;;;;;5.77;2.70;;;17.50;64.00;18.50;101193.00;;;;4969382;28;20546;-47
2022/10/08 07:58:31;;;;;;;5.07;2.30;;;17.50;64.10;18.60;101196.00;;;;4968846;28;20171;-45
2022/10/08 08:00:57;;;;;;;3.90;2.20;;;17.50;64.00;18.60;101185.00;;;;4969639;28;20186;-46
2022/10/08 08:03:23;;;;;;;4.70;2.57;;;17.50;64.00;18.60;101186.00;;;;4910757;28;20641;-45
2022/10/08 08:05:49;;;;;;;3.40;2.20;;;17.50;64.00;18.60;101191.00;;;;4970643;28;20202;-46
2022/10/08 08:08:15;;;;;;;3.97;2.60;;;17.50;64.10;18.60;101190.00;;;;4972753;28;20184;-47
2022/10/08 08:10:41;;;;;;;2.70;2.07;;;17.50;64.00;18.60;101192.00;;;;4972081;28;20215;-46
2022/10/08 08:13:06;;;;;;;3.53;2.30;;;17.50;64.00;18.60;101187.00;;;;4972348;28;20173;-46
2022/10/08 08:15:32;;;;;;;4.17;2.40;;;17.50;64.90;18.60;101193.00;;;;4969565;28;20247;-45
2022/10/08 08:17:58;;;;;;;4.70;2.30;;;17.50;64.10;18.60;101193.00;;;;4972674;28;20172;-46
2022/10/08 08:20:24;;;;;;;4.03;2.40;;;17.50;64.00;18.60;101197.00;;;;4986583;28;20689;-45
2022/10/08 08:22:49;;;;;;;9.20;2.40;;;17.50;64.10;18.60;101200.00;;;;4971946;28;20641;-45
2022/10/08 08:25:15;;;;;;;5.53;2.30;;;17.50;64.20;18.60;101210.00;;;;4981587;28;20176;-45
2022/10/08 08:27:41;;;;;;;8.20;2.60;;;17.50;64.40;18.50;101199.00;;;;4990837;28;20242;-46
2022/10/08 08:30:07;;;;;;;5.20;2.57;;;17.50;64.50;18.50;101200.00;;;;4983354;28;20195;-45
2022/10/08 08:32:33;;;;;;;6.77;2.60;;;17.50;64.50;18.50;101197.00;;;;4972592;28;20164;-47
2022/10/08 08:34:59;;;;;;;7.33;2.50;;;17.50;64.60;18.50;101210.00;;;;4978881;28;20648;-47
2022/10/08 08:37:25;;;;;;;8.90;2.37;;;17.50;64.60;18.50;101207.00;;;;4987362;28;20551;-45
2022/10/08 08:39:50;;;;;;;7.03;2.70;;;17.40;64.40;18.50;101211.00;;;;4972367;28;20163;-47
2022/10/08 08:42:34;;;;;;;5.40;2.43;;;17.50;64.70;18.50;101218.00;;;;4973592;28;20631;-46
2022/10/08 08:45:21;;;;;;;4.30;2.20;;;17.50;65.00;18.50;101224.00;;;;4968085;28;20173;-46
2022/10/08 08:48:36;;;;;;;7.43;2.60;;;17.50;65.20;18.50;101230.00;;;;4958208;28;20199;-46
2022/10/08 08:51:03;;;;;;;7.90;2.40;;;17.50;65.60;18.50;101232.00;;;;4911605;29;20378;-46
2022/10/08 08:53:28;;;;;;;7.07;2.40;;;17.50;65.80;18.60;101228.00;;;;4959728;28;20191;-46
2022/10/08 08:55:56;;;;;;;4.67;2.50;;;17.60;66.20;18.60;101239.00;;;;4971959;28;20569;-46
2022/10/08 08:58:46;;;;;;;4.30;2.60;;;17.60;66.60;18.60;101240.00;;;;4966721;28;20200;-45
2022/10/08 09:01:28;;;;;;;6.60;2.43;;;17.60;66.80;18.60;101234.00;;;;4952386;29;20165;-47
2022/10/08 09:03:57;;;;;;;5.17;2.40;;;17.60;67.10;18.60;101241.00;;;;4917570;28;20675;-46
2022/10/08 09:06:24;;;;;;;5.80;2.40;;;17.60;67.50;18.60;101237.00;;;;4974796;28;20197;-46
2022/10/08 09:09:41;;;;;;;7.47;2.50;;;17.60;67.60;18.60;101252.00;;;;4975935;28;20183;-46
2022/10/08 09:12:32;;;;;;;4.97;2.60;;;17.60;68.00;18.60;101256.00;;;;4978387;28;20232;-47
2022/10/08 09:14:59;;;;;;;7.03;2.70;;;17.60;68.20;18.60;101256.00;;;;4958316;28;20227;-46
2022/10/08 09:17:34;;;;;;;4.40;2.33;;;17.60;67.90;18.60;101254.00;;;;4970739;28;20274;-45
2022/10/08 09:20:00;;;;;;;7.63;2.80;;;17.60;67.90;18.60;101244.00;;;;4977050;28;20207;-52
2022/10/08 09:22:28;;;;;;;3.97;2.37;;;17.60;68.10;18.70;101253.00;;;;4974060;28;20180;-48
2022/10/08 09:25:13;;;;;;;9.67;2.60;;;17.60;68.00;18.70;101260.00;;;;4970275;28;20656;-47
2022/10/08 09:27:48;;;;;;;9.23;2.53;;;17.70;68.20;18.70;101264.00;;;;4969982;28;20202;-46
2022/10/08 09:30:36;;;;;;;6.83;2.70;;;17.70;67.90;18.70;101263.00;;;;4971562;28;20219;-46
2022/10/08 09:33:06;;;;;;;7.43;2.70;;;17.60;67.70;18.70;101263.00;;;;4971349;28;20172;-46
2022/10/08 09:35:33;;;;;;;8.87;2.83;;;17.70;67.90;18.70;101267.00;;;;4969901;28;20180;-45
2022/10/08 09:37:58;;;;;;;8.23;2.60;;;17.70;67.90;18.70;101267.00;;;;4970140;28;20172;-47
2022/10/08 09:40:28;;;;;;;7.23;2.53;;;17.70;67.90;18.70;101274.00;;;;4970592;28;20185;-47
2022/10/08 09:43:18;;;;;;;6.83;2.50;;;17.70;67.80;18.70;101273.00;;;;4970487;28;20180;-47
2022/10/08 09:45:48;;;;;;;8.40;2.60;;;17.70;67.80;18.70;101281.00;;;;4969857;28;20592;-47
2022/10/08 09:48:17;;;;;;;6.63;2.33;;;17.70;67.60;18.70;101280.00;;;;4969068;28;20159;-47
2022/10/08 09:51:13;;;;;;;11.90;2.70;;;17.80;67.60;18.70;101287.00;;;;4971300;28;20673;-49
2022/10/08 09:53:41;;;;;;;7.07;2.63;;;17.70;67.50;18.70;101284.00;;;;4964599;28;20185;-47
2022/10/08 09:56:07;;;;;;;4.33;2.50;;;17.80;67.50;18.70;101272.00;;;;4966432;28;20197;-47
2022/10/08 09:58:39;;;;;;;7.60;2.30;;;17.70;67.20;18.70;101289.00;;;;4969756;28;20164;-48
2022/10/08 10:01:12;;;;;;;6.43;2.43;;;17.70;67.10;18.70;101286.00;;;;4970235;28;20185;-47
2022/10/08 10:03:38;;;;;;;5.47;2.30;;;17.70;67.00;18.70;101280.00;;;;4931345;28;20655;-47
2022/10/08 10:06:04;;;;;;;7.07;2.77;;;17.70;66.90;18.70;101303.00;;;;4969781;28;20244;-49
2022/10/08 10:08:56;;;;;;;7.83;2.53;;;17.70;66.90;18.70;101288.00;;;;4969699;28;20176;-47
2022/10/08 10:11:30;;;;;;;5.57;2.50;;;17.70;66.90;18.60;101302.00;;;;4969237;28;20270;-46
2022/10/08 10:13:56;;;;;;;5.53;2.47;;;17.70;66.90;18.60;101305.00;;;;4969368;28;20157;-47
2022/10/08 10:16:32;;;;;;;6.77;2.50;;;17.70;66.90;18.60;101301.00;;;;4969066;28;20203;-47
2022/10/08 10:19:15;;;;;;;6.93;2.57;;;17.70;67.00;18.60;101300.00;;;;4968494;28;20665;-46
2022/10/08 10:21:58;;;;;;;3.43;2.43;;;17.70;67.00;18.60;101308.00;;;;4968218;28;20604;-46
2022/10/08 10:24:57;;;;;;;4.77;2.40;;;17.70;67.20;18.60;101312.00;;;;4966169;28;20893;-46
2022/10/08 10:27:42;;;;;;;4.27;2.40;;;17.70;67.10;18.60;101320.00;;;;4965772;28;20192;-46
2022/10/08 10:30:19;;;;;;;4.70;2.37;;;17.70;67.10;18.60;101307.00;;;;4949100;29;20199;-47
2022/10/08 10:32:59;;;;;;;8.33;2.60;;;17.70;67.00;18.60;101313.00;;;;4951217;28;20177;-45
2022/10/08 10:35:27;;;;;;;5.00;2.40;;;17.70;67.20;18.60;101308.00;;;;4964009;28;20185;-46
2022/10/08 10:38:08;;;;;;;3.17;2.33;;;17.70;67.00;18.60;101319.00;;;;4949566;29;20202;-45
2022/10/08 10:40:50;;;;;;;4.93;2.33;;;17.80;67.10;18.60;101309.00;;;;4965174;28;20212;-47
2022/10/08 10:43:53;;;;;;;2.40;2.10;;;17.70;66.90;18.60;101313.00;;;;4950039;29;20259;-46
2022/10/08 10:46:43;;;;;;;2.90;2.30;;;17.80;67.10;18.60;101319.00;;;;4965971;28;20195;-47
2022/10/08 10:49:20;;;;;;;2.50;2.30;;;17.80;67.00;18.70;101304.00;;;;4950875;29;20168;-46
2022/10/08 10:52:09;;;;;;;4.57;2.97;;;17.80;67.00;18.70;101306.00;;;;4964836;28;20296;-47
2022/10/08 10:55:04;;;;;;;6.73;2.97;;;17.80;67.00;18.40;101304.00;;;;4949660;29;20166;-45
2022/10/08 10:57:40;;;;;;;9.70;4.67;;;17.90;67.10;18.70;101311.00;;;;4972225;28;20212;-48
2022/10/08 11:00:13;;;;;;;8.47;4.37;;;17.90;67.40;18.70;101310.00;;;;4968288;28;20535;-47
2022/10/08 11:03:06;;;;;;;12.23;5.87;;;17.90;67.60;18.70;101318.00;;;;4950280;28;20167;-48